M I D A S
Marine Information and Data Acquisition System
Tripno 1709 of the Zeeleeuw from 2009-06-15 06:11:10 to 2009-06-15 16:47:28
Back to CruiseResearch ActivitiesStationsMapUnderway DataData graphs

EquipmentUnitsComment
TimeDGPSUTC
LatitudeDGPSDM.mWGS84
LongitudeDGPSDM.mWGS84
TemperatureSBE03/SBE38deg celciusITS90
ConductivitySBE21S/mITS90
SalinitySBE21 Practical Salinity Units
ChlorophylAChelsea fluorimeterg/lCalibrated in Aceton
Missing or incorrect values are displayed as -999
Sea surface data collected by the RV Zeeleeuw from 2009-06-15 06:13:37 to 2009-06-15 16:59:58
Time Latitude Longitude Temperature Conductivity Salinity ChlorophylA
2009-06-15 06:14:46 51°13.677 2°55.891 19.2651 0.024405 0.12476 0.496866
2009-06-15 06:15:45 51°13.696 2°55.806 19.2496 0.024405 0.124775 0.496866
2009-06-15 06:16:46 51°13.737 2°55.722 19.2773 0.024302 0.124266 0.53169
2009-06-15 06:17:45 51°13.778 2°55.679 19.2726 0.024405 0.124798 0.496866
2009-06-15 06:18:45 51°13.807 2°55.661 19.2735 0.024302 0.124289 0.53169
2009-06-15 06:19:45 51°13.866 2°55.641 19.2787 0.024508 0.12534 0.496866
2009-06-15 06:20:46 51°13.924 2°55.643 19.2799 0.02461 0.12588 0.496866
2009-06-15 06:21:44 51°13.944 2°55.647 19.2948 0.024713 0.126412 0.53169
2009-06-15 06:22:42 51°13.95 2°55.607 17.7246 4.353903 31.401287 2.969374
2009-06-15 06:23:42 51°14.007 2°55.53 17.5755 3.536475 26.260083 1.785356
2009-06-15 06:24:42 51°14.122 2°55.419 17.4707 3.56383 26.571802 2.133597
2009-06-15 06:25:42 51°14.253 2°55.266 17.3103 3.603103 26.997584 4.153392
2009-06-15 06:26:42 51°14.383 2°55.061 17.204 3.660827 27.585755 6.730372
2009-06-15 06:27:42 51°14.542 2°54.874 17.0681 3.703632 28.022085 8.018862
2009-06-15 06:28:42 51°14.703 2°54.692 16.9789 3.767068 28.615217 9.794888
2009-06-15 06:29:42 51°14.865 2°54.51 16.8994 3.885982 29.695005 12.1281
2009-06-15 06:30:41 51°15.027 2°54.331 16.8378 3.955665 30.339695 12.859405
2009-06-15 06:31:42 51°15.128 2°54.071 16.7953 4.000882 30.771121 13.486238
2009-06-15 06:32:42 51°15.147 2°53.769 16.7717 4.021729 30.979616 13.486238
2009-06-15 06:33:42 51°15.178 2°53.465 16.7536 4.028989 31.060647 13.103174
2009-06-15 06:34:42 51°15.22 2°53.168 16.7436 4.037806 31.147035 13.207646
2009-06-15 06:35:42 51°15.267 2°52.872 16.7208 4.044133 31.211471 13.730007
2009-06-15 06:36:42 51°15.312 2°52.576 16.6861 4.055646 31.331318 14.426488
2009-06-15 06:37:42 51°15.361 2°52.282 16.6594 4.072658 31.502586 15.157793
2009-06-15 06:38:42 51°15.411 2°51.989 16.6211 4.084483 31.625618 15.680154
2009-06-15 06:39:42 51°15.462 2°51.696 16.5862 4.094546 31.741955 16.446283
2009-06-15 06:40:42 51°15.515 2°51.402 16.5548 4.101392 31.830071 16.655227
2009-06-15 06:41:42 51°15.562 2°51.106 16.5271 4.108343 31.914106 16.829347
2009-06-15 06:42:42 51°15.611 2°50.81 16.4898 4.113841 31.98634 16.690051
2009-06-15 06:43:42 51°15.661 2°50.515 16.4657 4.119547 32.061152 16.481107
2009-06-15 06:44:42 51°15.713 2°50.224 16.4499 4.124838 32.124022 16.237338
2009-06-15 06:45:42 51°15.768 2°49.932 16.4216 4.131997 32.200595 15.854274
2009-06-15 06:46:42 51°15.818 2°49.636 16.3624 4.143098 32.327975 15.645329
2009-06-15 06:47:42 51°15.862 2°49.341 16.3042 4.151709 32.443841 15.506033
2009-06-15 06:48:42 51°15.884 2°49.04 16.2494 4.15918 32.565998 15.401561
2009-06-15 06:49:42 51°15.886 2°48.736 16.2135 4.164575 32.650442 15.401561
2009-06-15 06:50:42 51°15.891 2°48.432 16.1887 4.166651 32.695309 15.018497
2009-06-15 06:51:42 51°15.906 2°48.127 16.1805 4.167585 32.71954 14.8792
2009-06-15 06:52:42 51°15.92 2°47.823 16.1784 4.169556 32.743515 14.774728
2009-06-15 06:53:42 51°15.932 2°47.522 16.1944 4.174847 32.787227 14.844376
2009-06-15 06:54:42 51°15.945 2°47.22 16.2109 4.182317 32.839976 14.948848
2009-06-15 06:55:42 51°15.967 2°46.92 16.2272 4.188334 32.879298 15.157793
2009-06-15 06:56:42 51°16.022 2°46.629 16.2315 4.194248 32.921727 15.192617
2009-06-15 06:57:42 51°16.094 2°46.35 16.2218 4.198606 32.957908 15.436385
2009-06-15 06:58:42 51°16.184 2°46.081 16.2024 4.20037 32.982131 15.575681
2009-06-15 06:59:42 51°16.274 2°45.806 16.1744 4.199644 32.993968 15.680154
2009-06-15 07:00:42 51°16.368 2°45.53 16.1671 4.200578 33.020394 15.749802
2009-06-15 07:01:42 51°16.511 2°45.303 16.1552 4.202238 33.040379 15.540857
2009-06-15 07:02:42 51°16.652 2°45.075 16.1376 4.203069 33.061202 15.192617
2009-06-15 07:03:42 51°16.785 2°44.838 16.1049 4.201927 33.066071 14.844376
2009-06-15 07:04:42 51°16.908 2°44.587 16.0654 4.199438 33.071291 14.809552
2009-06-15 07:05:42 51°17.029 2°44.336 16.0271 4.196533 33.079662 14.948848
2009-06-15 07:06:42 51°17.137 2°44.073 15.9929 4.19145 33.0675 15.157793
2009-06-15 07:07:42 51°17.244 2°43.807 15.9756 4.185225 33.035067 15.053321
2009-06-15 07:08:42 51°17.352 2°43.54 15.9696 4.179726 33.001537 15.122969
2009-06-15 07:09:42 51°17.458 2°43.273 15.9568 4.176925 32.98227 15.122969
2009-06-15 07:10:42 51°17.56 2°43.005 15.9483 4.176406 32.986524 14.948848
2009-06-15 07:11:42 51°17.67 2°42.741 15.9557 4.18066 33.028806 14.948848
2009-06-15 07:12:42 51°17.787 2°42.477 15.9748 4.191139 33.107638 15.088145
2009-06-15 07:13:42 51°17.899 2°42.214 15.9644 4.204005 33.2116 15.122969
2009-06-15 07:14:42 51°18.005 2°41.95 15.9032 4.212825 33.312068 14.809552
2009-06-15 07:15:42 51°18.115 2°41.689 15.8559 4.211165 33.349622 14.322015
2009-06-15 07:16:42 51°18.234 2°41.437 15.8317 4.207638 33.349387 14.078247
2009-06-15 07:17:42 51°18.371 2°41.207 15.8282 4.206082 33.349387 14.008599
2009-06-15 07:18:42 51°18.511 2°40.982 15.8315 4.206601 33.355362 13.904127
2009-06-15 07:19:42 51°18.644 2°40.749 15.8283 4.208572 33.371445 13.904127
2009-06-15 07:20:42 51°18.777 2°40.517 15.8234 4.209817 33.387306 13.834479
2009-06-15 07:21:42 51°18.902 2°40.274 15.8367 4.213449 33.419484 13.764831
2009-06-15 07:22:42 51°19.012 2°40.01 15.8702 4.218636 33.447482 12.929053
2009-06-15 07:23:42 51°19.108 2°39.732 15.8875 4.225588 33.484168 12.580813
2009-06-15 07:24:42 51°19.204 2°39.452 15.8806 4.231295 33.528473 12.754933
2009-06-15 07:25:42 51°19.304 2°39.175 15.8513 4.235549 33.576542 12.720109
2009-06-15 07:26:42 51°19.407 2°38.897 15.8201 4.23887 33.633045 12.650461
2009-06-15 07:27:42 51°19.505 2°38.615 15.8061 4.239389 33.660606 12.580813
2009-06-15 07:28:42 51°19.605 2°38.329 15.8062 4.241465 33.687384 12.720109
2009-06-15 07:29:42 51°19.705 2°38.042 15.8068 4.242087 33.691517 12.615637
2009-06-15 07:30:42 51°19.8 2°37.755 15.7794 4.242503 33.695898 12.511165
2009-06-15 07:31:42 51°19.881 2°37.505 15.7024 4.246135 33.76797 11.95398
2009-06-15 07:32:42 51°19.93 2°37.361 15.6591 4.249353 33.857612 11.605739
2009-06-15 07:33:42 51°19.951 2°37.264 15.6378 4.249872 33.889681 11.396795
2009-06-15 07:34:42 51°19.967 2°37.182 15.6269 4.25008 33.905626 10.944082
2009-06-15 07:35:42 51°19.989 2°37.091 15.6223 4.250287 33.913825 10.700314
2009-06-15 07:36:42 51°20.011 2°36.999 15.6149 4.250495 33.924144 10.526194
2009-06-15 07:37:42 51°20.046 2°36.928 15.6021 4.250599 33.93213 10.386897
2009-06-15 07:38:42 51°20.078 2°36.883 15.6048 4.250495 33.9418 10.212777
2009-06-15 07:39:42 51°20.089 2°36.874 15.6017 4.250392 33.938047 10.108305
2009-06-15 07:40:45 51°20.09 2°36.884 15.5933 4.250599 33.944846 9.864537
2009-06-15 07:41:45 51°20.076 2°36.913 15.5856 4.250392 33.951477 9.620768
2009-06-15 07:42:45 51°20.08 2°36.916 15.5804 4.249977 33.952721 9.516296
2009-06-15 07:43:43 51°20.101 2°36.888 15.5793 4.250184 33.958111 9.655592
2009-06-15 07:44:42 51°20.102 2°36.895 15.5712 4.250081 33.962137 9.272528
2009-06-15 07:45:42 51°20.098 2°36.914 15.5698 4.248213 33.946868 9.063583
2009-06-15 07:46:42 51°20.094 2°36.935 15.5681 4.249873 33.965238 8.889463
2009-06-15 07:47:42 51°20.088 2°36.958 15.5699 4.249977 33.966165 8.959111
2009-06-15 07:48:44 51°20.078 2°36.986 15.5641 4.250185 33.967311 8.819815
2009-06-15 07:49:42 51°20.071 2°37.007 15.5632 4.250185 33.970851 8.924287
2009-06-15 07:50:42 51°20.065 2°37.024 15.5643 4.250185 33.971559 8.715343
2009-06-15 07:51:42 51°20.06 2°37.038 15.5674 4.250185 33.971559 8.576047
2009-06-15 07:52:42 51°20.055 2°37.048 15.5663 4.250392 33.972705 8.401926
2009-06-15 07:53:42 51°20.052 2°37.056 15.565 4.250288 33.972486 8.227806
2009-06-15 07:54:42 51°20.05 2°37.063 15.5629 4.250392 33.973413 8.08851
2009-06-15 07:55:42 51°20.062 2°37.059 15.5638 4.250392 33.975538 8.018862
2009-06-15 07:56:42 51°20.075 2°37.038 15.5591 4.250392 33.976246 7.949214
2009-06-15 07:57:42 51°20.084 2°37.018 15.557 4.250288 33.978152 7.879566
2009-06-15 07:58:42 51°20.09 2°37.001 15.5564 4.250288 33.97886 7.91439
2009-06-15 07:59:42 51°20.095 2°36.987 15.5598 4.250392 33.978371 7.844741
2009-06-15 08:00:42 51°20.1 2°36.975 15.5601 4.2506 33.978809 7.775093
2009-06-15 08:01:42 51°20.107 2°36.964 15.5597 4.2506 33.979517 7.566149
2009-06-15 08:02:42 51°20.115 2°36.956 15.5568 4.2506 33.980934 7.461677
2009-06-15 08:03:42 51°20.123 2°36.949 15.5529 4.250496 33.982132 7.287557
2009-06-15 08:04:42 51°20.133 2°36.937 15.5555 4.250496 33.981423 7.322381
2009-06-15 08:05:42 51°20.147 2°36.923 15.5562 4.2506 33.983768 7.217908
2009-06-15 08:06:42 51°20.162 2°36.906 15.5545 4.250807 33.984914 7.008964
2009-06-15 08:07:42 51°20.176 2°36.892 15.5544 4.250807 33.986331 7.008964
2009-06-15 08:08:42 51°20.189 2°36.88 15.5557 4.250911 33.987259 6.834844
2009-06-15 08:09:42 51°20.201 2°36.87 15.5574 4.251119 33.987696 6.869668
2009-06-15 08:10:42 51°20.213 2°36.862 15.5559 4.251222 33.987206 6.869668
2009-06-15 08:11:42 51°20.224 2°36.855 15.5537 4.248524 33.967345 6.834844
2009-06-15 08:12:42 51°20.235 2°36.849 15.5603 4.251222 33.988624 6.869668
2009-06-15 08:13:42 51°20.244 2°36.844 15.5581 4.251119 33.987696 6.869668
2009-06-15 08:14:42 51°20.254 2°36.839 15.5583 4.251326 33.987425 6.834844
2009-06-15 08:15:42 51°20.262 2°36.833 15.5598 4.251119 33.98557 6.730372
2009-06-15 08:16:42 51°20.27 2°36.827 15.5613 4.251015 33.984643 6.591076
2009-06-15 08:17:42 51°20.277 2°36.822 15.5605 4.251015 33.983226 6.486603
2009-06-15 08:18:42 51°20.283 2°36.816 15.5638 4.251015 33.981809 6.451779
2009-06-15 08:19:42 51°20.289 2°36.809 15.5647 4.251222 33.982247 6.451779
2009-06-15 08:20:42 51°20.294 2°36.802 15.565 4.251222 33.982956 6.382131
2009-06-15 08:21:42 51°20.299 2°36.794 15.5636 4.25143 33.984102 6.486603
2009-06-15 08:22:42 51°20.304 2°36.785 15.5619 4.251222 33.983664 6.486603
2009-06-15 08:23:42 51°20.309 2°36.776 15.5588 4.251222 33.985789 6.521427
2009-06-15 08:24:42 51°20.313 2°36.767 15.5572 4.251222 33.987206 6.6259
2009-06-15 08:25:42 51°20.317 2°36.757 15.5575 4.251222 33.987915 6.6259
2009-06-15 08:26:42 51°20.321 2°36.747 15.5529 4.251222 33.987915 6.730372
2009-06-15 08:27:42 51°20.325 2°36.738 15.5586 4.251326 33.989551 6.834844
2009-06-15 08:28:42 51°20.329 2°36.729 15.5544 4.251534 33.990697 6.869668
2009-06-15 08:29:42 51°20.332 2°36.72 15.5531 4.251326 33.991677 6.869668
2009-06-15 08:30:42 51°20.335 2°36.711 15.5548 4.251222 33.992167 6.904492
2009-06-15 08:31:42 51°20.337 2°36.703 15.5552 4.251326 33.992386 7.043788
2009-06-15 08:32:42 51°20.339 2°36.695 15.5531 4.25143 33.993313 7.078612
2009-06-15 08:33:42 51°20.341 2°36.688 15.554 4.25143 33.993313 6.97414
2009-06-15 08:34:42 51°20.342 2°36.681 15.5544 4.251534 33.992823 6.97414
2009-06-15 08:35:42 51°20.342 2°36.674 15.5551 4.251534 33.993532 7.043788
2009-06-15 08:36:42 51°20.342 2°36.667 15.5547 4.251534 33.99495 7.008964
2009-06-15 08:37:42 51°20.342 2°36.66 15.5544 4.251638 33.995168 7.008964
2009-06-15 08:38:42 51°20.343 2°36.652 15.5548 4.251637 33.99446 7.043788
2009-06-15 08:39:42 51°20.38 2°36.639 15.558 4.251741 33.993969 6.904492
2009-06-15 08:40:42 51°20.409 2°36.717 15.5576 4.251845 33.993479 8.192982
2009-06-15 08:41:42 51°20.356 2°36.89 15.5629 4.25143 33.989061 9.028759
2009-06-15 08:42:42 51°20.245 2°37.035 15.5706 4.251015 33.982518 9.655592
2009-06-15 08:43:42 51°20.111 2°37.082 15.5688 4.250703 33.972654 10.282425
2009-06-15 08:44:42 51°20.037 2°37.061 15.5642 4.250703 33.976903 10.561018
2009-06-15 08:45:42 51°19.992 2°37.056 15.5607 4.250911 33.980882 10.456545
2009-06-15 08:46:42 51°19.963 2°37.061 15.5577 4.251326 33.9853 10.317249
2009-06-15 08:47:42 51°19.941 2°37.064 15.5546 4.251326 33.991677 9.969009
2009-06-15 08:48:42 51°19.926 2°37.061 15.5546 4.251741 33.996096 9.481472
2009-06-15 08:49:42 51°19.918 2°37.053 15.5528 4.252053 33.999587 9.377
2009-06-15 08:50:42 51°19.913 2°37.043 15.5484 4.25226 34.005697 8.959111
2009-06-15 08:51:42 51°19.91 2°37.031 15.5434 4.252675 34.010826 8.610871
2009-06-15 08:52:42 51°19.907 2°37.019 15.5402 4.252883 34.01552 8.43675
2009-06-15 08:53:42 51°19.903 2°37.006 15.5407 4.253194 34.021142 8.053686
2009-06-15 08:54:42 51°19.901 2°36.991 15.5351 4.253609 34.026983 7.879566
2009-06-15 08:55:42 51°19.899 2°36.976 15.5346 4.254128 34.033753 7.600973
2009-06-15 08:56:42 51°19.897 2°36.959 15.537 4.254543 34.037465 7.461677
2009-06-15 08:57:42 51°19.892 2°36.943 15.5349 4.255166 34.043033 7.322381
2009-06-15 08:58:42 51°19.878 2°36.933 15.5375 4.255477 34.047239 7.287557
2009-06-15 08:59:42 51°19.866 2°36.923 15.5362 4.2561 34.049966 7.113436
2009-06-15 09:00:42 51°19.857 2°36.912 15.5334 4.256411 34.053461 7.14826
2009-06-15 09:01:42 51°19.85 2°36.9 15.5304 4.256411 34.055592 7.008964
2009-06-15 09:02:42 51°19.843 2°36.887 15.5309 4.256411 34.056303 7.14826
2009-06-15 09:03:42 51°19.837 2°36.872 15.5304 4.256515 34.057942 7.043788
2009-06-15 09:04:42 51°19.832 2°36.855 15.5324 4.256619 34.05958 7.008964
2009-06-15 09:05:42 51°19.827 2°36.836 15.5344 4.257034 34.061872 7.043788
2009-06-15 09:06:42 51°19.822 2°36.816 15.5363 4.257345 34.063235 7.008964
2009-06-15 09:07:42 51°19.819 2°36.796 15.5363 4.25776 34.064105 6.97414
2009-06-15 09:08:42 51°19.816 2°36.775 15.5388 4.257864 34.065033 6.80002
2009-06-15 09:09:42 51°19.813 2°36.753 15.5389 4.258071 34.06689 6.660724
2009-06-15 09:10:42 51°19.811 2°36.731 15.538 4.258175 34.066396 6.660724
2009-06-15 09:11:42 51°19.808 2°36.71 15.5402 4.258279 34.066614 6.6259
2009-06-15 09:12:42 51°19.806 2°36.689 15.5401 4.258383 34.067542 6.521427
2009-06-15 09:13:42 51°19.804 2°36.668 15.5424 4.25859 34.067266 6.521427
2009-06-15 09:14:42 51°19.802 2°36.648 15.5432 4.258798 34.067701 6.486603
2009-06-15 09:15:42 51°19.8 2°36.627 15.5451 4.258798 34.066991 6.416955
2009-06-15 09:16:42 51°19.798 2°36.606 15.5471 4.259109 34.067643 6.382131
2009-06-15 09:17:42 51°19.797 2°36.585 15.5451 4.259109 34.068353 6.347307
2009-06-15 09:18:42 51°19.795 2°36.564 15.5486 4.259213 34.06786 6.382131
2009-06-15 09:19:42 51°19.793 2°36.542 15.5508 4.25942 34.068295 6.277659
2009-06-15 09:20:42 51°19.791 2°36.521 15.5508 4.259524 34.069934 6.242835
2009-06-15 09:21:42 51°19.789 2°36.499 15.5504 4.259628 34.070151 6.242835
2009-06-15 09:22:42 51°19.787 2°36.477 15.5477 4.259524 34.069934 6.277659
2009-06-15 09:23:42 51°19.785 2°36.455 15.5463 4.25942 34.070427 6.382131
2009-06-15 09:24:42 51°19.784 2°36.432 15.5451 4.259213 34.069992 6.451779
2009-06-15 09:25:42 51°19.779 2°36.407 15.5444 4.25942 34.071137 6.486603
2009-06-15 09:26:42 51°19.77 2°36.38 15.5465 4.25942 34.070427 6.451779
2009-06-15 09:27:42 51°19.755 2°36.35 15.5515 4.258798 34.064859 6.521427
2009-06-15 09:28:42 51°19.718 2°36.31 15.5528 4.258071 34.055522 6.521427
2009-06-15 09:29:42 51°19.664 2°36.27 15.5901 4.258694 34.058959 6.765196
2009-06-15 09:30:42 51°19.619 2°36.242 15.6297 4.258174 34.012479 7.078612
2009-06-15 09:31:42 51°19.584 2°36.22 15.6525 4.259004 33.999363 7.183084
2009-06-15 09:32:42 51°19.549 2°36.163 15.6857 4.258589 33.971627 7.357205
2009-06-15 09:33:42 51°19.532 2°36.093 15.6965 4.258277 33.942743 8.018862
2009-06-15 09:34:42 51°19.521 2°36.021 15.6957 4.258796 33.941022 8.332278
2009-06-15 09:35:42 51°19.512 2°35.934 15.704 4.258899 33.937718 8.506398
2009-06-15 09:36:42 51°19.509 2°35.83 15.7065 4.259107 33.932521 8.576047
2009-06-15 09:37:43 51°19.511 2°35.711 15.7037 4.259522 33.934105 8.645695
2009-06-15 09:38:43 51°19.528 2°35.502 15.68 4.259833 33.941809 8.576047
2009-06-15 09:39:43 51°19.581 2°35.219 15.6408 4.260041 33.969753 9.794888
2009-06-15 09:40:43 51°19.642 2°34.903 15.5928 4.260561 34.005472 8.297454
2009-06-15 09:41:43 51°19.747 2°34.621 15.5436 4.263882 34.064159 8.367102
2009-06-15 09:42:43 51°19.901 2°34.405 15.5403 4.262948 34.089183 8.506398
2009-06-15 09:43:43 51°20.064 2°34.206 15.5468 4.260562 34.079213 9.098407
2009-06-15 09:44:43 51°20.223 2°33.996 15.557 4.256514 34.027414 9.377
2009-06-15 09:45:43 51°20.385 2°33.784 15.5872 4.255373 34.000914 9.411824
2009-06-15 09:46:43 51°20.544 2°33.563 15.5856 4.255372 33.981094 9.20288
2009-06-15 09:47:43 51°20.71 2°33.354 15.5768 4.255788 33.989752 8.924287
2009-06-15 09:48:43 51°20.883 2°33.162 15.498 4.259835 34.037228 8.401926
2009-06-15 09:49:43 51°21.054 2°32.97 15.4688 4.262534 34.126741 8.227806
2009-06-15 09:50:43 51°21.225 2°32.775 15.425 4.263261 34.156063 8.018862
2009-06-15 09:51:43 51°21.391 2°32.582 15.3103 4.27063 34.300926 7.113436
2009-06-15 09:52:43 51°21.556 2°32.389 15.3146 4.268451 34.336757 7.008964
2009-06-15 09:53:43 51°21.721 2°32.195 15.3784 4.265961 34.301394 7.078612
2009-06-15 09:54:43 51°21.888 2°32.014 15.4198 4.259941 34.197785 7.705445
2009-06-15 09:55:43 51°22.063 2°31.863 15.4556 4.257865 34.151263 7.844741
2009-06-15 09:56:43 51°22.239 2°31.713 15.4681 4.254752 34.085551 8.018862
2009-06-15 09:57:43 51°22.415 2°31.557 15.475 4.252365 34.052791 8.123334
2009-06-15 09:58:43 51°22.593 2°31.402 15.469 4.25278 34.061488 8.08851
2009-06-15 09:59:43 51°22.773 2°31.25 15.4655 4.253195 34.064493 8.123334
2009-06-15 10:00:43 51°22.952 2°31.099 15.4573 4.252365 34.064888 7.949214
2009-06-15 10:01:43 51°23.11 2°30.968 15.3151 4.248838 34.081017 8.192982
2009-06-15 10:02:43 51°23.243 2°30.851 15.3128 4.241368 34.08825 8.123334
2009-06-15 10:03:43 51°23.362 2°30.747 15.283 4.240434 34.083436 7.984038
2009-06-15 10:04:43 51°23.482 2°30.698 15.2432 4.238151 34.095844 7.635797
2009-06-15 10:05:43 51°23.667 2°30.639 15.172 4.236907 34.122649 7.635797
2009-06-15 10:06:43 51°23.859 2°30.566 15.1649 4.23338 34.141894 7.740269
2009-06-15 10:07:43 51°24.051 2°30.496 15.1774 4.234106 34.145564 7.566149
2009-06-15 10:08:43 51°24.241 2°30.423 15.1703 4.234002 34.143909 7.566149
2009-06-15 10:09:43 51°24.424 2°30.36 15.1752 4.232238 34.132323 7.635797
2009-06-15 10:10:43 51°24.519 2°30.331 15.1515 4.233587 34.132974 7.322381
2009-06-15 10:11:43 51°24.569 2°30.317 15.1553 4.231097 34.134983 7.252733
2009-06-15 10:12:43 51°24.605 2°30.297 15.1559 4.230993 34.12973 7.217908
2009-06-15 10:13:43 51°24.635 2°30.255 15.1591 4.231304 34.12822 7.183084
2009-06-15 10:14:43 51°24.664 2°30.208 15.1559 4.231305 34.133256 7.078612
2009-06-15 10:15:43 51°24.686 2°30.181 15.163 4.231823 34.131459 7.183084
2009-06-15 10:16:43 51°24.693 2°30.157 15.1604 4.232135 34.132826 7.566149
2009-06-15 10:17:43 51°24.699 2°30.129 15.1659 4.232238 34.134481 8.018862
2009-06-15 10:18:43 51°24.702 2°30.102 15.167 4.232446 34.133475 7.91439
2009-06-15 10:19:43 51°24.704 2°30.074 15.1674 4.23255 34.13441 7.949214
2009-06-15 10:20:43 51°24.717 2°30.056 15.1705 4.232757 34.134123 8.053686
2009-06-15 10:21:43 51°24.728 2°30.077 15.1691 4.233276 34.134484 7.984038
2009-06-15 10:22:43 51°24.71 2°30.137 15.17 4.233483 34.135635 7.566149
2009-06-15 10:23:43 51°24.687 2°30.206 15.1735 4.233276 34.132326 7.357205
2009-06-15 10:24:43 51°24.663 2°30.215 15.1715 4.233172 34.132829 7.217908
2009-06-15 10:25:43 51°24.644 2°30.196 15.1687 4.233068 34.131175 8.053686
2009-06-15 10:26:43 51°24.626 2°30.169 15.1807 4.232757 34.129807 7.984038
2009-06-15 10:27:43 51°24.61 2°30.14 15.1709 4.233276 34.128731 7.705445
2009-06-15 10:28:43 51°24.59 2°30.114 15.173 4.232549 34.129375 8.08851
2009-06-15 10:29:43 51°24.561 2°30.134 15.1762 4.232653 34.128153 7.949214
2009-06-15 10:30:43 51°24.573 2°30.203 15.1804 4.233068 34.12758 7.566149
2009-06-15 10:31:43 51°24.612 2°30.264 15.1758 4.232861 34.127147 7.392029
2009-06-15 10:32:43 51°24.666 2°30.258 15.187 4.231823 34.11564 7.322381
2009-06-15 10:33:43 51°24.685 2°30.224 15.1979 4.233691 34.125283 7.252733
2009-06-15 10:34:43 51°24.696 2°30.183 15.1895 4.234106 34.127585 7.426853
2009-06-15 10:35:43 51°24.702 2°30.142 15.199 4.233794 34.11975 7.426853
2009-06-15 10:36:43 51°24.705 2°30.103 15.1919 4.234417 34.127515 7.566149
2009-06-15 10:37:43 51°24.707 2°30.065 15.1894 4.233794 34.126936 7.670621
2009-06-15 10:38:43 51°24.73 2°30.044 15.1957 4.233587 34.125066 7.809917
2009-06-15 10:39:43 51°24.742 2°30.067 15.1997 4.233898 34.124278 7.566149
2009-06-15 10:40:43 51°24.722 2°30.098 15.1775 4.234106 34.123273 7.287557
2009-06-15 10:41:43 51°24.701 2°30.151 15.2022 4.232653 34.124558 7.183084
2009-06-15 10:42:43 51°24.679 2°30.211 15.1964 4.234209 34.123489 7.14826
2009-06-15 10:43:43 51°24.65 2°30.221 15.1908 4.234002 34.122338 7.078612
2009-06-15 10:44:43 51°24.631 2°30.199 15.1745 4.233379 34.123915 7.14826
2009-06-15 10:45:43 51°24.621 2°30.166 15.1404 4.231408 34.129155 8.784991
2009-06-15 10:46:43 51°24.609 2°30.131 15.1733 4.229437 34.126488 8.576047
2009-06-15 10:47:43 51°24.597 2°30.095 15.1952 4.232031 34.121823 7.844741
2009-06-15 10:48:43 51°24.583 2°30.058 15.219 4.233691 34.121689 7.809917
2009-06-15 10:49:43 51°24.57 2°30.022 15.239 4.235662 34.122207 7.183084
2009-06-15 10:50:43 51°24.547 2°29.997 15.2328 4.238152 34.119503 6.939316
2009-06-15 10:51:43 51°24.485 2°29.991 15.2119 4.236803 34.126022 7.183084
2009-06-15 10:52:43 51°24.439 2°29.854 15.2076 4.235766 34.12386 7.008964
2009-06-15 10:53:43 51°24.522 2°29.621 15.1981 4.235869 34.124076 6.97414
2009-06-15 10:54:43 51°24.626 2°29.335 15.2033 4.235558 34.1263 7.008964
2009-06-15 10:55:43 51°24.732 2°29.071 15.1937 4.235766 34.133199 7.078612
2009-06-15 10:56:43 51°24.79 2°28.921 15.2094 4.238152 34.156137 6.904492
2009-06-15 10:57:43 51°24.807 2°28.866 15.158 4.240954 34.182099 6.521427
2009-06-15 10:58:43 51°24.81 2°28.83 15.1503 4.238983 34.195298 6.939316
2009-06-15 10:59:43 51°24.809 2°28.794 15.1349 4.238153 34.196461 7.287557
2009-06-15 11:00:43 51°24.805 2°28.757 15.1425 4.237323 34.198348 7.426853
2009-06-15 11:01:43 51°24.8 2°28.717 15.1386 4.237842 34.19798 7.566149
2009-06-15 11:02:43 51°24.793 2°28.676 15.1419 4.237427 34.198563 7.879566
2009-06-15 11:03:43 51°24.784 2°28.633 15.1444 4.237531 34.197335 8.018862
2009-06-15 11:04:43 51°24.774 2°28.591 15.1392 4.237531 34.198777 7.775093
2009-06-15 11:05:43 51°24.763 2°28.549 15.1419 4.237531 34.198777 7.949214
2009-06-15 11:06:43 51°24.777 2°28.511 15.1536 4.237946 34.199637 7.91439
2009-06-15 11:07:43 51°24.793 2°28.556 15.1471 4.239087 34.200559 7.461677
2009-06-15 11:08:43 51°24.79 2°28.728 15.1544 4.238776 34.200635 7.217908
2009-06-15 11:09:43 51°24.756 2°28.96 15.1604 4.238464 34.194944 7.461677
2009-06-15 11:10:43 51°24.619 2°29.145 15.2028 4.239501 34.171888 7.531325
2009-06-15 11:11:43 51°24.449 2°29.286 15.1945 4.236803 34.143265 7.670621
2009-06-15 11:12:43 51°24.281 2°29.435 15.1959 4.234832 34.124787 7.496501
2009-06-15 11:13:43 51°24.123 2°29.603 15.2035 4.235558 34.124145 7.392029
2009-06-15 11:14:43 51°24.011 2°29.708 15.2428 4.235869 34.121203 7.322381
2009-06-15 11:15:43 51°23.924 2°29.777 15.2601 4.237425 34.105795 7.008964
2009-06-15 11:16:43 51°23.853 2°29.826 15.2557 4.239812 34.117227 6.834844
2009-06-15 11:17:43 51°23.816 2°29.839 15.253 4.238774 34.110044 6.80002
2009-06-15 11:18:43 51°23.794 2°29.833 15.2577 4.2395 34.11371 6.869668
2009-06-15 11:19:43 51°23.773 2°29.855 15.2397 4.239915 34.113142 6.904492
2009-06-15 11:20:43 51°23.751 2°29.904 15.2171 4.237944 34.115483 6.730372
2009-06-15 11:21:43 51°23.737 2°29.924 15.2251 4.235765 34.116679 6.869668
2009-06-15 11:22:43 51°23.724 2°29.926 15.2206 4.236595 34.109082 6.97414
2009-06-15 11:23:43 51°23.712 2°29.917 15.2424 4.23618 34.108933 7.183084
2009-06-15 11:24:43 51°23.702 2°29.9 15.2459 4.23618 34.092441 7.357205
2009-06-15 11:25:43 51°23.694 2°29.875 15.4581 4.23867 34.055437 8.158158
2009-06-15 11:26:43 51°23.686 2°29.845 15.5182 4.246865 33.995041 8.889463
2009-06-15 11:27:43 51°23.678 2°29.809 15.4702 4.24977 33.987687 9.342176
2009-06-15 11:28:43 51°23.67 2°29.769 15.4577 4.247176 34.006348 9.342176
2009-06-15 11:29:43 51°23.66 2°29.727 15.3481 4.245828 34.017013 8.645695
2009-06-15 11:30:43 51°23.649 2°29.685 15.3076 4.240018 34.050409 8.401926
2009-06-15 11:31:43 51°23.637 2°29.642 15.3159 4.240434 34.074854 8.506398
2009-06-15 11:32:43 51°23.625 2°29.598 15.3154 4.240849 34.078583 8.43675
2009-06-15 11:33:43 51°23.613 2°29.553 15.3298 4.240849 34.075008 8.610871
2009-06-15 11:34:43 51°23.614 2°29.508 15.289 4.240537 34.062208 8.680519
2009-06-15 11:35:43 51°23.648 2°29.505 15.2554 4.24033 34.098248 7.496501
2009-06-15 11:36:43 51°23.665 2°29.542 15.2408 4.238878 34.110977 6.904492
2009-06-15 11:37:43 51°23.676 2°29.596 15.2448 4.237529 34.108879 6.834844
2009-06-15 11:38:43 51°23.688 2°29.632 15.233 4.237322 34.105578 6.834844
2009-06-15 11:39:43 51°23.694 2°29.63 15.257 4.236388 34.104346 6.869668
2009-06-15 11:40:43 51°23.705 2°29.616 15.257 4.237218 34.10106 7.252733
2009-06-15 11:41:43 51°23.715 2°29.617 15.2476 4.237944 34.098993 6.97414
2009-06-15 11:42:43 51°23.725 2°29.64 15.4311 4.236699 34.097109 7.043788
2009-06-15 11:43:43 51°23.721 2°29.618 15.507 4.243337 33.979084 7.357205
2009-06-15 11:44:43 51°23.713 2°29.581 15.4982 4.24728 33.979598 8.750167
2009-06-15 11:45:43 51°23.717 2°29.595 15.5444 4.247591 33.967498 8.854639
2009-06-15 11:46:43 51°23.721 2°29.621 15.5858 4.24925 33.950477 7.91439
2009-06-15 11:47:43 51°23.719 2°29.629 15.5902 4.250703 33.939413 7.600973
2009-06-15 11:48:43 51°23.713 2°29.627 15.5924 4.251014 33.93654 7.705445
2009-06-15 11:49:43 51°23.715 2°29.641 15.5738 4.250703 33.935881 7.775093
2009-06-15 11:50:43 51°23.726 2°29.668 15.5647 4.249769 33.941676 7.531325
2009-06-15 11:51:43 51°23.733 2°29.669 15.6044 4.249354 33.930905 7.670621
2009-06-15 11:52:43 51°23.738 2°29.653 15.6309 4.251636 33.924445 7.670621
2009-06-15 11:53:43 51°23.741 2°29.632 15.6093 4.253296 33.920911 7.844741
2009-06-15 11:54:43 51°23.741 2°29.627 15.5967 4.251637 33.934327 8.08851
2009-06-15 11:55:43 51°23.74 2°29.635 15.593 4.25091 33.929259 7.775093
2009-06-15 11:56:43 51°23.743 2°29.652 15.5874 4.250599 33.928599 7.879566
2009-06-15 11:57:43 51°23.739 2°29.654 15.616 4.250599 33.929305 7.566149
2009-06-15 11:58:43 51°23.734 2°29.647 15.6274 4.25174 33.919022 7.740269
2009-06-15 11:59:43 51°23.733 2°29.642 15.616 4.251947 33.915935 7.949214
2009-06-15 12:00:43 51°23.735 2°29.66 15.6306 4.251325 33.909679 7.879566
2009-06-15 12:01:43 51°23.735 2°29.681 15.6201 4.251325 33.907564 7.809917
2009-06-15 12:02:43 51°23.734 2°29.681 15.5992 4.249976 33.906111 8.08851
2009-06-15 12:03:43 51°23.734 2°29.667 15.612 4.248835 33.907215 8.053686
2009-06-15 12:04:43 51°23.733 2°29.641 15.6227 4.249146 33.900118 8.401926
2009-06-15 12:05:43 51°23.73 2°29.61 15.6395 4.249976 33.894833 8.889463
2009-06-15 12:06:43 51°23.73 2°29.584 15.6301 4.250806 33.893074 8.924287
2009-06-15 12:07:43 51°23.738 2°29.606 15.6237 4.250599 33.906727 8.610871
2009-06-15 12:08:43 51°23.748 2°29.662 15.6425 4.249768 33.895097 8.08851
2009-06-15 12:09:43 51°23.77 2°29.702 15.6372 4.249872 33.882638 7.670621
2009-06-15 12:10:43 51°23.787 2°29.707 15.6452 4.248212 33.870658 7.705445
2009-06-15 12:11:43 51°23.799 2°29.695 15.6174 4.24707 33.858375 7.635797
2009-06-15 12:12:43 51°23.806 2°29.672 15.6041 4.247797 33.887384 7.670621
2009-06-15 12:13:43 51°23.809 2°29.642 15.602 4.246552 33.886852 8.053686
2009-06-15 12:14:43 51°23.809 2°29.609 15.6002 4.247174 33.89029 8.332278
2009-06-15 12:15:43 51°23.808 2°29.571 15.61 4.24759 33.896813 8.506398
2009-06-15 12:16:43 51°23.806 2°29.532 15.615 4.248316 33.894125 8.784991
2009-06-15 12:17:43 51°23.801 2°29.491 15.6182 4.248731 33.892892 9.028759
2009-06-15 12:18:43 51°23.795 2°29.449 15.6176 4.249042 33.892849 9.168055
2009-06-15 12:19:43 51°23.792 2°29.409 15.619 4.249042 33.894963 9.133231
2009-06-15 12:20:43 51°23.822 2°29.411 15.6393 4.249457 33.894435 8.506398
2009-06-15 12:21:43 51°23.854 2°29.519 15.6605 4.250495 33.891708 7.740269
2009-06-15 12:22:43 51°23.871 2°29.725 15.6111 4.251221 33.891139 7.740269
2009-06-15 12:23:43 51°23.825 2°29.962 15.5914 4.248523 33.882587 7.809917
2009-06-15 12:24:43 51°23.722 2°30.173 15.5818 4.245099 33.881648 7.740269
2009-06-15 12:25:43 51°23.609 2°30.373 15.6243 4.242298 33.852429 7.635797
2009-06-15 12:26:43 51°23.494 2°30.585 15.5834 4.243231 33.835415 7.670621
2009-06-15 12:27:43 51°23.378 2°30.805 15.695 4.239392 33.81104 7.740269
2009-06-15 12:28:43 51°23.266 2°31.028 15.8 4.243956 33.759095 7.775093
2009-06-15 12:29:43 51°23.156 2°31.253 15.7996 4.247587 33.731962 8.08851
2009-06-15 12:30:43 51°23.046 2°31.476 15.7629 4.244266 33.706675 8.158158
2009-06-15 12:31:43 51°22.937 2°31.702 15.7514 4.24188 33.706413 8.053686
2009-06-15 12:32:43 51°22.806 2°31.904 15.775 4.240946 33.7044 8.332278
2009-06-15 12:33:43 51°22.663 2°32.094 15.7729 4.240012 33.681459 8.26263
2009-06-15 12:34:43 51°22.518 2°32.283 15.7704 4.239078 33.679442 8.158158
2009-06-15 12:35:43 51°22.375 2°32.478 15.7676 4.238975 33.672944 7.91439
2009-06-15 12:36:43 51°22.234 2°32.676 15.7789 4.239182 33.671999 7.879566
2009-06-15 12:37:43 51°22.093 2°32.877 15.7443 4.239286 33.663864 8.227806
2009-06-15 12:38:43 51°21.952 2°33.081 15.6546 4.235032 33.669303 8.43675
2009-06-15 12:39:43 51°21.808 2°33.282 15.6752 4.229845 33.688137 8.471574
2009-06-15 12:40:43 51°21.666 2°33.485 15.6966 4.228185 33.660081 8.192982
2009-06-15 12:41:43 51°21.521 2°33.684 15.817 4.227561 33.621048 7.984038
2009-06-15 12:42:43 51°21.379 2°33.881 15.8665 4.229427 33.522315 8.158158
2009-06-15 12:43:43 51°21.242 2°34.08 15.8883 4.229323 33.492354 8.43675
2009-06-15 12:44:43 51°21.101 2°34.275 15.9301 4.227766 33.460638 8.959111
2009-06-15 12:45:43 51°20.958 2°34.469 15.9395 4.227559 33.445015 8.854639
2009-06-15 12:46:43 51°20.815 2°34.662 15.9133 4.2287 33.435128 9.063583
2009-06-15 12:47:43 51°20.676 2°34.863 15.7878 4.226003 33.487843 9.098407
2009-06-15 12:48:43 51°20.535 2°35.062 15.7581 4.219363 33.495446 8.924287
2009-06-15 12:49:43 51°20.419 2°35.228 15.8032 4.217288 33.486741 9.342176
2009-06-15 12:50:43 51°20.352 2°35.417 15.903 4.217807 33.470561 9.481472
2009-06-15 12:51:43 51°20.309 2°35.618 15.8138 4.220816 33.474393 9.760064
2009-06-15 12:52:43 51°20.271 2°35.832 15.8207 4.218118 33.468475 10.108305
2009-06-15 12:53:43 51°20.226 2°36.066 15.828 4.21791 33.461791 10.212777
2009-06-15 12:54:43 51°20.177 2°36.304 15.835 4.217599 33.45419 10.317249
2009-06-15 12:55:43 51°20.13 2°36.516 15.8376 4.217495 33.44843 10.630666
2009-06-15 12:56:43 51°20.09 2°36.605 15.8537 4.217703 33.444047 10.978906
2009-06-15 12:57:43 51°20.058 2°36.613 15.8531 4.219155 33.445859 11.327147
2009-06-15 12:58:43 51°20.033 2°36.603 15.8463 4.218844 33.443793 11.536091
2009-06-15 12:59:43 51°20.008 2°36.583 15.8448 4.21791 33.441048 11.675387
2009-06-15 13:00:43 51°19.984 2°36.555 15.84 4.216769 33.437156 11.640563
2009-06-15 13:01:43 51°19.963 2°36.518 15.8401 4.216354 33.435552 11.570915
2009-06-15 13:02:43 51°19.946 2°36.476 15.8686 4.217287 33.43208 12.093276
2009-06-15 13:03:43 51°19.934 2°36.433 15.8509 4.220815 33.441221 12.371868
2009-06-15 13:04:43 51°19.925 2°36.395 15.8487 4.218844 33.435504 12.30222
2009-06-15 13:05:43 51°19.917 2°36.359 15.8331 4.218325 33.434363 12.30222
2009-06-15 13:06:43 51°19.909 2°36.327 15.8286 4.216873 33.434621 12.30222
2009-06-15 13:07:43 51°19.902 2°36.299 15.8456 4.21708 33.435077 12.406692
2009-06-15 13:08:43 51°19.895 2°36.271 15.8397 4.217702 33.430921 12.162924
2009-06-15 13:09:43 51°19.886 2°36.244 15.8268 4.21708 33.430933 12.197748
2009-06-15 13:10:43 51°19.877 2°36.218 15.8209 4.21625 33.43256 12.476341
2009-06-15 13:11:43 51°19.867 2°36.191 15.8221 4.215835 33.43372 12.859405
2009-06-15 13:12:43 51°19.855 2°36.165 15.8312 4.215731 33.429346 12.894229
2009-06-15 13:13:43 51°19.843 2°36.141 15.8318 4.216561 33.4291 12.789757
2009-06-15 13:14:43 51°19.828 2°36.117 15.8239 4.216457 33.430253 12.963877
2009-06-15 13:15:43 51°19.813 2°36.092 15.8199 4.216043 33.431413 13.06835
2009-06-15 13:16:43 51°19.795 2°36.065 15.8198 4.215835 33.433029 12.963877
2009-06-15 13:17:43 51°19.777 2°36.038 15.8181 4.215939 33.434639 13.103174
2009-06-15 13:18:43 51°19.758 2°36.005 15.8205 4.216043 33.435559 13.033525
2009-06-15 13:19:43 51°19.74 2°35.968 15.8207 4.216146 33.435096 13.207646
2009-06-15 13:20:43 51°19.723 2°35.928 15.8216 4.216458 33.437163 12.337044
2009-06-15 13:21:43 51°19.707 2°35.886 15.8229 4.216665 33.43831 12.1281
2009-06-15 13:22:43 51°19.691 2°35.844 15.8237 4.216769 33.437156 11.77986
2009-06-15 13:23:43 51°19.677 2°35.802 15.8255 4.216976 33.438304 11.745035
2009-06-15 13:24:43 51°19.662 2°35.76 15.8286 4.217391 33.439217 11.745035
2009-06-15 13:25:43 51°19.647 2°35.72 15.8246 4.217806 33.44082 12.023628
2009-06-15 13:26:43 51°19.632 2°35.68 15.8239 4.217599 33.442437 11.919156
2009-06-15 13:27:43 51°19.618 2°35.641 15.8289 4.217495 33.440827 11.95398
2009-06-15 13:28:43 51°19.602 2°35.603 15.8328 4.21791 33.440358 11.95398
2009-06-15 13:29:43 51°19.587 2°35.565 15.8315 4.218325 33.44127 12.232572
2009-06-15 13:30:43 51°19.572 2°35.527 15.8284 4.218221 33.442424 12.441517
2009-06-15 13:31:43 51°19.556 2°35.49 15.8328 4.218221 33.443806 12.511165
2009-06-15 13:32:43 51°19.54 2°35.454 15.8482 4.218844 33.443102 12.789757
2009-06-15 13:33:43 51°19.523 2°35.416 15.8383 4.219778 33.443773 12.580813
2009-06-15 13:34:43 51°19.507 2°35.378 15.8352 4.219051 33.444249 12.894229
2009-06-15 13:35:43 51°19.49 2°35.342 15.8347 4.218948 33.444712 13.033525
2009-06-15 13:36:43 51°19.473 2°35.305 15.8367 4.218948 33.444712 12.963877
2009-06-15 13:37:43 51°19.457 2°35.268 15.8361 4.218948 33.444712 13.381766
2009-06-15 13:38:43 51°19.44 2°35.232 15.834 4.219363 33.448388 13.172822
2009-06-15 13:39:43 51°19.423 2°35.196 15.8363 4.219363 33.44977 12.824581
2009-06-15 13:40:43 51°19.407 2°35.16 15.8333 4.21957 33.451608 12.894229
2009-06-15 13:41:43 51°19.425 2°35.141 15.8312 4.219778 33.453446 12.824581
2009-06-15 13:42:43 51°19.475 2°35.287 15.8205 4.219467 33.454836 12.023628
2009-06-15 13:43:43 51°19.595 2°35.465 15.8036 4.217703 33.450269 10.944082
2009-06-15 13:44:43 51°19.713 2°35.661 15.7771 4.214798 33.437659 11.327147
2009-06-15 13:45:43 51°19.822 2°35.864 15.8163 4.213242 33.442538 10.630666
2009-06-15 13:46:43 51°19.894 2°36.109 15.744 4.216354 33.447996 10.352073
2009-06-15 13:47:43 51°19.967 2°36.357 15.7611 4.212101 33.460807 10.386897
2009-06-15 13:48:43 51°20.009 2°36.603 15.7854 4.215939 33.473389 10.073481
2009-06-15 13:49:43 51°20.037 2°36.711 15.8528 4.217599 33.456265 9.272528
2009-06-15 13:50:43 51°20.055 2°36.715 15.9399 4.224343 33.459329 8.750167
2009-06-15 13:51:43 51°20.064 2°36.69 15.8827 4.228285 33.445923 9.411824
2009-06-15 13:52:43 51°20.068 2°36.66 15.8604 4.225692 33.479557 9.72524
2009-06-15 13:53:43 51°20.067 2°36.63 15.8505 4.224965 33.478656 10.003833
2009-06-15 13:54:43 51°20.063 2°36.6 15.8192 4.224343 33.480747 10.003833
2009-06-15 13:55:43 51°20.057 2°36.567 15.79 4.22175 33.493745 10.456545
2009-06-15 13:56:43 51°20.049 2°36.536 15.8135 4.220816 33.493777 10.143129
2009-06-15 13:57:43 51°20.045 2°36.507 15.8514 4.220816 33.473702 10.386897
2009-06-15 13:58:43 51°20.049 2°36.496 15.8882 4.222994 33.456367 9.829713
2009-06-15 13:59:43 51°20.052 2°36.513 15.8943 4.224757 33.447819 9.620768
2009-06-15 14:00:43 51°20.059 2°36.557 15.8958 4.228597 33.474879 9.098407
2009-06-15 14:01:43 51°20.068 2°36.605 15.8665 4.228804 33.474645 9.411824
2009-06-15 14:02:43 51°20.073 2°36.629 15.8009 4.226418 33.494284 9.585944
2009-06-15 14:03:43 51°20.076 2°36.635 15.7831 4.22258 33.504567 9.481472
2009-06-15 14:04:43 51°20.077 2°36.629 15.7647 4.22092 33.509252 9.516296
2009-06-15 14:05:43 51°20.075 2°36.615 15.7305 4.219467 33.515786 10.003833
2009-06-15 14:06:43 51°20.073 2°36.597 15.72 4.217393 33.518887 9.969009
2009-06-15 14:07:43 51°20.069 2°36.578 15.7166 4.216355 33.515924 9.794888
2009-06-15 14:08:43 51°20.064 2°36.555 15.7095 4.215629 33.514336 9.934185
2009-06-15 14:09:43 51°20.057 2°36.53 15.7059 4.215214 33.516207 9.934185
2009-06-15 14:10:43 51°20.05 2°36.502 15.7032 4.215006 33.515754 10.317249
2009-06-15 14:11:43 51°20.042 2°36.472 15.7033 4.214695 33.518549 10.421721
2009-06-15 14:12:43 51°20.034 2°36.441 15.7122 4.214799 33.515995 10.456545
2009-06-15 14:13:43 51°20.024 2°36.409 15.7008 4.215318 33.518519 10.595842
2009-06-15 14:14:43 51°20.013 2°36.377 15.7007 4.214903 33.520392 10.352073
2009-06-15 14:15:43 51°20.002 2°36.344 15.7017 4.214799 33.520166 10.804786
2009-06-15 14:16:43 51°19.991 2°36.314 15.7063 4.214799 33.517385 10.735138
2009-06-15 14:17:43 51°19.999 2°36.287 15.7195 4.215006 33.517144 10.317249
2009-06-15 14:18:43 51°20.013 2°36.307 15.7106 4.215525 33.512719 9.133231
2009-06-15 14:19:43 51°19.983 2°36.36 15.7025 4.214384 33.507444 8.854639
2009-06-15 14:20:43 51°19.937 2°36.394 15.7007 4.213658 33.512804 8.541223
2009-06-15 14:21:43 51°19.898 2°36.427 15.6938 4.213865 33.512563 8.192982
2009-06-15 14:22:43 51°19.908 2°36.521 15.6957 4.213865 33.518124 8.506398
2009-06-15 14:23:43 51°19.956 2°36.626 15.6715 4.21345 33.518608 8.401926
2009-06-15 14:24:43 51°19.986 2°36.676 15.6708 4.21179 33.514283 8.401926
2009-06-15 14:25:43 51°20.009 2°36.683 15.6805 4.210753 33.50645 8.750167
2009-06-15 14:26:43 51°20.024 2°36.676 15.68 4.210857 33.50459 8.610871
2009-06-15 14:27:43 51°20.031 2°36.66 15.6764 4.210856 33.501114 8.750167
2009-06-15 14:28:43 51°20.024 2°36.634 15.6693 4.210234 33.499751 9.690416
2009-06-15 14:29:43 51°20.014 2°36.605 15.6757 4.209715 33.500702 10.317249
2009-06-15 14:30:43 51°20.003 2°36.578 15.6731 4.210026 33.497212 10.526194
2009-06-15 14:31:43 51°19.992 2°36.55 15.679 4.210027 33.502774 10.421721
2009-06-15 14:32:43 51°19.981 2°36.522 15.6837 4.210441 33.49812 10.456545
2009-06-15 14:33:43 51°19.97 2°36.496 15.6858 4.210649 33.497879 10.49137
2009-06-15 14:34:43 51°19.959 2°36.469 15.6835 4.211064 33.500178 10.456545
2009-06-15 14:35:43 51°19.947 2°36.444 15.6762 4.21096 33.501341 10.526194
2009-06-15 14:36:43 51°19.936 2°36.419 15.6774 4.210545 33.502519 10.317249
2009-06-15 14:37:43 51°19.925 2°36.394 15.6742 4.210649 33.50205 10.769962
2009-06-15 14:38:43 51°19.912 2°36.369 15.6762 4.210545 33.503909 11.048554
2009-06-15 14:39:43 51°19.9 2°36.345 15.6807 4.210856 33.503895 10.630666
2009-06-15 14:40:43 51°19.888 2°36.322 15.6822 4.211271 33.504108 10.630666
2009-06-15 14:41:43 51°19.876 2°36.299 15.6845 4.211375 33.504335 10.595842
2009-06-15 14:42:43 51°19.863 2°36.276 15.6885 4.211479 33.503172 10.526194
2009-06-15 14:43:43 51°19.851 2°36.255 15.6897 4.211894 33.503385 10.421721
2009-06-15 14:44:43 51°19.838 2°36.234 15.6885 4.212101 33.505229 10.630666
2009-06-15 14:45:43 51°19.827 2°36.214 15.6904 4.212205 33.505456 10.735138
2009-06-15 14:46:43 51°19.815 2°36.194 15.6915 4.212309 33.505683 10.421721
2009-06-15 14:47:43 51°19.812 2°36.169 15.7009 4.212413 33.50591 10.143129
2009-06-15 14:48:43 51°19.854 2°36.205 15.6985 4.213761 33.506082 10.630666
2009-06-15 14:49:43 51°19.9 2°36.374 15.7044 4.213346 33.510733 9.342176
2009-06-15 14:50:43 51°19.977 2°36.507 15.7218 4.212516 33.494326 9.168055
2009-06-15 14:51:43 51°20.026 2°36.589 15.7173 4.212205 33.483923 9.690416
2009-06-15 14:52:43 51°20.044 2°36.642 15.7155 4.211894 33.479077 9.272528
2009-06-15 14:53:43 51°20.049 2°36.677 15.7054 4.211582 33.481865 9.168055
2009-06-15 14:54:43 51°20.048 2°36.678 15.6692 4.211064 33.481422 9.55112
2009-06-15 14:55:43 51°20.043 2°36.668 15.6382 4.209612 33.506735 10.526194
2009-06-15 14:56:43 51°20.039 2°36.655 15.638 4.208471 33.513983 10.073481
2009-06-15 14:57:43 51°20.034 2°36.642 15.6301 4.208782 33.520931 9.690416
2009-06-15 14:58:43 51°20.029 2°36.628 15.6359 4.208574 33.523264 9.829713
2009-06-15 14:59:43 51°20.024 2°36.613 15.6534 4.208367 33.510275 9.481472
2009-06-15 15:00:43 51°20.019 2°36.599 15.6472 4.208885 33.507929 9.864537
2009-06-15 15:01:43 51°20.015 2°36.584 15.6427 4.208782 33.511182 10.247601
2009-06-15 15:02:43 51°20.01 2°36.57 15.6519 4.208782 33.513271 9.72524
2009-06-15 15:03:43 51°20.006 2°36.557 15.6587 4.209093 33.509079 9.934185
2009-06-15 15:04:43 51°20.002 2°36.543 15.6582 4.2093 33.503271 10.003833
2009-06-15 15:05:43 51°19.998 2°36.531 15.6589 4.2093 33.506054 10.735138
2009-06-15 15:06:43 51°19.994 2°36.517 15.6621 4.208678 33.499126 10.526194
2009-06-15 15:07:43 51°19.99 2°36.504 15.6708 4.209715 33.505571 10.212777
2009-06-15 15:08:43 51°19.986 2°36.492 15.6812 4.210338 33.504151 10.282425
2009-06-15 15:09:43 51°19.982 2°36.48 15.6863 4.211271 33.502022 10.177953
2009-06-15 15:10:43 51°19.978 2°36.468 15.6974 4.211271 33.501327 9.934185
2009-06-15 15:11:43 51°19.974 2°36.456 15.686 4.211064 33.487671 10.108305
2009-06-15 15:12:43 51°19.97 2°36.444 15.7177 4.211583 33.498534 10.143129
2009-06-15 15:13:43 51°19.966 2°36.434 15.728 4.213969 33.492647 9.794888
2009-06-15 15:14:43 51°19.961 2°36.425 15.7217 4.214487 33.494477 10.003833
2009-06-15 15:15:43 51°19.957 2°36.416 15.7165 4.213969 33.495424 10.247601
2009-06-15 15:16:43 51°19.953 2°36.407 15.7085 4.213657 33.496131 10.66549
2009-06-15 15:17:43 51°19.949 2°36.398 15.7098 4.213139 33.495689 10.804786
2009-06-15 15:18:43 51°19.949 2°36.383 15.7152 4.213139 33.497773 10.49137
2009-06-15 15:19:43 51°19.975 2°36.347 15.7523 4.213969 33.492647 9.20288
2009-06-15 15:20:43 51°20.018 2°36.301 15.7302 4.21594 33.484479 7.984038
2009-06-15 15:21:43 51°20.055 2°36.262 15.7366 4.214487 33.491007 8.053686
2009-06-15 15:22:43 51°20.084 2°36.231 15.7616 4.214902 33.487753 8.332278
2009-06-15 15:23:43 51°20.109 2°36.207 15.7882 4.216562 33.482377 8.715343
2009-06-15 15:24:43 51°20.13 2°36.187 15.7791 4.218741 33.478841 8.784991
2009-06-15 15:25:43 51°20.15 2°36.172 15.775 4.218845 33.490152 8.784991
2009-06-15 15:26:43 51°20.168 2°36.16 15.7729 4.218637 33.492469 8.645695
2009-06-15 15:27:43 51°20.185 2°36.15 15.767 4.218741 33.49131 8.784991
2009-06-15 15:28:43 51°20.201 2°36.141 15.7764 4.218118 33.492026 8.680519
2009-06-15 15:29:43 51°20.216 2°36.134 15.7769 4.218845 33.486687 8.924287
2009-06-15 15:30:43 51°20.23 2°36.129 15.7905 4.218741 33.485074 9.133231
2009-06-15 15:31:43 51°20.244 2°36.125 15.806 4.219882 33.48342 8.993935
2009-06-15 15:32:43 51°20.254 2°36.122 15.8127 4.220816 33.481313 8.889463
2009-06-15 15:33:43 51°20.262 2°36.121 15.8333 4.221438 33.475759 8.715343
2009-06-15 15:34:43 51°20.269 2°36.121 15.8311 4.222787 33.475951 9.028759
2009-06-15 15:35:43 51°20.275 2°36.122 15.7876 4.223409 33.489767 9.411824
2009-06-15 15:36:43 51°20.28 2°36.123 15.7811 4.221231 33.501615 9.794888
2009-06-15 15:37:43 51°20.288 2°36.128 15.7871 4.220816 33.500706 9.55112
2009-06-15 15:38:43 51°20.31 2°36.192 15.7824 4.221335 33.500456 8.750167
2009-06-15 15:39:43 51°20.286 2°36.359 15.8032 4.221646 33.513614 7.949214
2009-06-15 15:40:43 51°20.211 2°36.611 15.8994 4.220816 33.484082 7.844741
2009-06-15 15:41:43 51°20.12 2°36.879 16.0179 4.217286 33.331572 8.018862
2009-06-15 15:42:43 51°20.019 2°37.139 16.0163 4.214172 33.253441 8.192982
2009-06-15 15:43:43 51°19.921 2°37.403 15.9736 4.211163 33.227601 8.26263
2009-06-15 15:44:43 51°19.822 2°37.667 16.1091 4.209089 33.237998 8.471574
2009-06-15 15:45:43 51°19.725 2°37.933 16.15 4.199126 33.007642 9.446648
2009-06-15 15:46:43 51°19.632 2°38.201 16.1176 4.194456 32.957216 10.038657
2009-06-15 15:47:43 51°19.539 2°38.471 16.0958 4.193108 32.995332 10.003833
2009-06-15 15:48:43 51°19.446 2°38.74 16.1206 4.192278 32.986686 9.934185
2009-06-15 15:49:43 51°19.341 2°38.993 16.1347 4.190826 32.959065 10.212777
2009-06-15 15:50:43 51°19.232 2°39.242 16.1018 4.181488 32.878416 10.630666
2009-06-15 15:51:43 51°19.126 2°39.496 16.101 4.173084 32.814725 10.352073
2009-06-15 15:52:43 51°19.022 2°39.754 16.0883 4.170906 32.80904 10.073481
2009-06-15 15:53:43 51°18.917 2°40.012 16.1196 4.172669 32.816459 10.212777
2009-06-15 15:54:43 51°18.813 2°40.27 16.1015 4.17215 32.793091 10.317249
2009-06-15 15:55:43 51°18.707 2°40.532 15.9983 4.167482 32.782332 10.456545
2009-06-15 15:56:43 51°18.597 2°40.802 15.9315 4.16489 32.842378 10.83961
2009-06-15 15:57:43 51°18.488 2°41.068 16.1624 4.161776 32.769845 11.710211
2009-06-15 15:58:43 51°18.381 2°41.332 16.3147 4.158766 32.658957 11.919156
2009-06-15 15:59:43 51°18.275 2°41.59 16.4245 4.151812 32.426273 12.963877
2009-06-15 16:00:43 51°18.169 2°41.848 16.4561 4.150877 32.33007 13.207646
2009-06-15 16:01:43 51°18.064 2°42.108 16.3397 4.149217 32.314332 13.172822
2009-06-15 16:02:43 51°17.957 2°42.367 16.3509 4.139675 32.330352 13.346942
2009-06-15 16:03:43 51°17.853 2°42.63 16.3036 4.139467 32.314742 14.113071
2009-06-15 16:04:43 51°17.745 2°42.893 16.2253 4.137808 32.346318 15.854274
2009-06-15 16:05:43 51°17.635 2°43.16 16.0269 4.137809 32.41895 16.411459
2009-06-15 16:06:43 51°17.523 2°43.431 15.9302 4.148497 32.682658 14.600608
2009-06-15 16:07:43 51°17.415 2°43.698 16.3867 4.140092 32.493983 15.366737
2009-06-15 16:08:43 51°17.307 2°43.958 16.3829 4.135628 32.271465 16.655227
2009-06-15 16:09:43 51°17.2 2°44.217 16.5063 4.129196 32.191265 16.028394
2009-06-15 16:10:43 51°17.088 2°44.472 16.4149 4.131685 32.166563 16.585579
2009-06-15 16:11:43 51°16.976 2°44.733 16.2123 4.1293 32.197396 16.446283
2009-06-15 16:12:43 51°16.868 2°44.995 16.084 4.123597 32.30725 15.958746
2009-06-15 16:13:43 51°16.749 2°45.245 16.1406 4.121108 32.370137 15.854274
2009-06-15 16:14:43 51°16.628 2°45.489 16.2767 4.118928 32.262489 19.092911
2009-06-15 16:15:43 51°16.497 2°45.712 16.2198 0.871679 5.684079 18.953615
2009-06-15 16:16:43 51°16.35 2°45.906 16.3169 0.132567 0.779424 19.545624
2009-06-15 16:17:43 51°16.202 2°46.101 16.3724 0.071229 0.409362 19.406327
2009-06-15 16:18:43 51°16.092 2°46.355 16.7048 0.061349 0.351755 19.441151
2009-06-15 16:19:43 51°16.037 2°46.666 16.7008 0.058776 0.336707 16.306987
2009-06-15 16:20:43 51°15.982 2°46.983 16.6126 0.057953 0.331853 16.341811
2009-06-15 16:21:43 51°15.899 2°47.28 16.7238 0.057439 0.32912 17.560652
2009-06-15 16:22:43 51°15.807 2°47.569 16.84 0.05713 0.327884 14.844376
2009-06-15 16:23:43 51°15.715 2°47.857 16.8485 0.056718 0.326066 13.973775
2009-06-15 16:24:43 51°15.625 2°48.143 16.8138 0.056512 0.325383 14.635432
2009-06-15 16:25:43 51°15.568 2°48.441 16.9456 0.056307 0.324605 16.272162
2009-06-15 16:26:43 51°15.593 2°48.764 16.8169 0.056204 0.324302 14.8792
2009-06-15 16:27:43 51°15.617 2°49.092 16.8394 0.056101 0.323961 17.874069
2009-06-15 16:28:43 51°15.633 2°49.423 16.9162 0.055998 0.32354 17.699949
2009-06-15 16:29:43 51°15.641 2°49.757 16.8684 0.055895 0.323105 16.968644
2009-06-15 16:30:43 51°15.63 2°50.092 16.8198 0.055792 0.322634 17.769597
2009-06-15 16:31:43 51°15.607 2°50.421 17.0036 0.055792 0.322726 17.247236
2009-06-15 16:32:43 51°15.581 2°50.751 17.3949 0.055792 0.322726 5.372234
2009-06-15 16:33:43 51°15.547 2°51.077 17.47 0.055895 0.323327 4.327512
2009-06-15 16:34:43 51°15.484 2°51.387 17.5676 0.056101 0.32448 3.700679
2009-06-15 16:35:43 51°15.41 2°51.688 17.6379 0.056307 0.325583 3.247966
2009-06-15 16:36:43 51°15.33 2°51.984 17.7222 0.056718 0.327798 2.969374
2009-06-15 16:37:43 51°15.252 2°52.283 17.8372 0.057027 0.329487 2.795254
2009-06-15 16:38:43 51°15.176 2°52.581 17.9209 0.057233 0.330423 2.655957
2009-06-15 16:39:43 51°15.097 2°52.878 18.0122 0.057439 0.331383 2.551485
2009-06-15 16:40:43 51°15.013 2°53.171 18.1132 0.057644 0.332411 2.481837
2009-06-15 16:41:43 51°14.932 2°53.465 18.1742 0.057747 0.332808 2.377365
2009-06-15 16:42:43 51°14.85 2°53.761 18.2556 0.05785 0.33323 2.342541
2009-06-15 16:43:43 51°14.765 2°54.058 18.3347 0.057953 0.333607 2.272893
2009-06-15 16:44:43 51°14.675 2°54.351 18.4066 0.057953 0.333366 2.203245
2009-06-15 16:45:43 51°14.572 2°54.632 18.473 0.058056 0.333718 2.168421
2009-06-15 16:46:43 51°14.46 2°54.904 18.5393 0.058056 0.333427 2.133597
2009-06-15 16:47:43 51°14.331 2°55.149 18.6268 0.058159 0.333803 2.098773
2009-06-15 16:48:43 51°14.199 2°55.335 18.6873 0.058159 0.333545 2.029124
2009-06-15 16:49:43 51°14.066 2°55.451 18.7522 0.058262 0.333927 2.029124
2009-06-15 16:50:43 51°13.946 2°55.544 18.8107 0.058262 0.333656 1.9943
2009-06-15 16:51:43 51°13.824 2°55.635 18.8682 0.058262 0.333405 1.959476
2009-06-15 16:52:43 51°13.735 2°55.743 18.9346 0.058262 0.333142 1.924652
2009-06-15 16:53:43 51°13.688 2°55.848 18.9971 0.058365 0.333504 1.889828
2009-06-15 16:54:43 51°13.667 2°55.934 19.0606 0.058365 0.333229 1.889828
2009-06-15 16:55:43 51°13.663 2°55.959 19.1386 0.058365 0.333004 1.855004
2009-06-15 16:56:43 51°13.66 2°55.959 19.2093 0.058365 0.332774 1.82018
2009-06-15 16:57:43 51°13.663 2°55.961 19.2394 0.058365 0.332549 1.82018
2009-06-15 16:58:43 51°13.664 2°55.962 19.2636 0.058365 0.332363 1.785356
2009-06-15 16:59:43 51°13.664 2°55.961 19.3672 0.058468 0.332774 1.750532